createdAt,value
2019-05-19T00:04:14.716Z,97140.00
2019-05-19T00:14:50.733Z,97145.00
2019-05-19T00:25:25.975Z,97165.00
2019-05-19T00:36:05.702Z,97174.00
2019-05-19T00:46:41.735Z,97190.00
2019-05-19T00:57:24.827Z,97212.00
2019-05-19T01:08:07.766Z,97246.00
2019-05-19T01:18:43.726Z,97263.00
2019-05-19T01:29:27.030Z,97278.00
2019-05-19T01:40:02.937Z,97269.00
2019-05-19T01:50:45.849Z,97284.00
2019-05-19T02:01:26.947Z,97305.00
2019-05-19T02:12:09.965Z,97331.00
2019-05-19T02:22:53.152Z,97337.00
2019-05-19T02:33:35.841Z,97374.00
2019-05-19T02:44:08.844Z,97397.00
2019-05-19T02:54:45.169Z,97398.00
2019-05-19T03:05:28.164Z,97412.00
2019-05-19T03:16:11.704Z,97419.00
2019-05-19T03:26:52.955Z,97411.00
2019-05-19T03:37:28.863Z,97448.00
2019-05-19T03:48:07.176Z,97434.00
2019-05-19T03:58:51.168Z,97433.00
2019-05-19T04:09:33.136Z,97433.00
2019-05-19T04:20:17.203Z,97418.00
2019-05-19T04:30:59.896Z,97405.00
2019-05-19T04:41:39.491Z,97405.00
2019-05-19T04:52:19.120Z,97379.00
2019-05-19T05:03:03.143Z,97354.00
2019-05-19T05:13:43.932Z,97318.00
2019-05-19T05:24:24.108Z,97298.00
2019-05-19T05:35:08.892Z,97245.00
2019-05-19T05:45:52.008Z,97208.00
2019-05-19T05:56:29.174Z,97180.00
2019-05-19T06:07:13.015Z,97149.00
2019-05-19T06:17:50.715Z,97104.00
2019-05-19T06:28:36.012Z,96986.00
2019-05-19T06:39:07.430Z,96865.00
2019-05-19T06:49:45.342Z,96801.00
2019-05-19T07:00:27.146Z,96831.00
2019-05-19T07:11:08.932Z,96794.00
2019-05-19T07:21:52.036Z,96792.00
2019-05-19T07:32:37.249Z,96736.00
2019-05-19T07:43:19.276Z,96691.00
2019-05-19T07:53:54.337Z,96683.00
2019-05-19T08:04:37.029Z,96654.00
2019-05-19T08:15:21.829Z,96517.00
2019-05-19T08:26:07.172Z,96442.00
2019-05-19T08:36:51.667Z,96409.00
2019-05-19T08:47:33.968Z,96302.00
2019-05-19T08:58:18.234Z,96216.00
2019-05-19T09:09:01.312Z,96184.00
2019-05-19T09:19:46.155Z,96095.00
2019-05-19T09:30:27.501Z,96091.00
2019-05-19T09:41:11.989Z,96080.00
2019-05-19T09:51:56.162Z,95931.00
2019-05-19T10:02:33.280Z,95895.00
2019-05-19T10:13:09.172Z,95958.00
2019-05-19T10:23:53.331Z,95787.00
2019-05-19T10:34:31.285Z,95668.00
2019-05-19T10:45:02.208Z,95645.00
2019-05-19T10:55:46.082Z,95651.00
2019-05-19T11:06:18.379Z,95671.00
2019-05-19T11:17:02.449Z,95644.00
2019-05-19T11:27:47.243Z,95560.00
2019-05-19T11:38:30.315Z,95564.00
2019-05-19T11:49:09.150Z,95561.00
2019-05-19T11:59:50.423Z,95599.00
2019-05-19T12:10:26.569Z,95625.00
2019-05-19T12:21:10.257Z,95595.00
2019-05-19T12:31:54.436Z,95565.00
2019-05-19T12:42:37.131Z,95551.00
2019-05-19T12:53:17.114Z,95708.00
2019-05-19T13:03:44.317Z,95657.00
2019-05-19T13:14:21.410Z,95714.00
2019-05-19T13:25:04.334Z,95822.00
2019-05-19T13:35:45.544Z,95930.00
2019-05-19T13:46:23.530Z,95959.00
2019-05-19T13:57:12.260Z,95884.00
2019-05-19T14:07:50.133Z,95950.00
2019-05-19T14:18:29.244Z,96161.00
2019-05-19T14:29:12.556Z,96200.00
2019-05-19T14:39:49.355Z,96217.00
2019-05-19T14:50:29.307Z,96201.00
2019-05-19T15:01:13.478Z,96211.00
2019-05-19T15:11:57.139Z,96210.00
2019-05-19T15:22:38.336Z,96265.00
2019-05-19T15:33:19.469Z,96278.00
2019-05-19T15:44:03.565Z,96228.00
2019-05-19T15:54:45.267Z,96206.00
2019-05-19T16:05:27.579Z,96196.00
2019-05-19T16:16:03.469Z,96164.00
2019-05-19T16:26:42.205Z,96134.00
2019-05-19T16:37:25.410Z,96088.00
2019-05-19T16:47:57.683Z,96038.00
2019-05-19T16:58:45.477Z,96010.00
2019-05-19T17:09:21.793Z,96001.00
2019-05-19T17:20:04.416Z,95982.00
2019-05-19T17:30:40.394Z,95972.00
2019-05-19T17:41:21.392Z,95972.00
2019-05-19T17:51:59.665Z,96029.00
2019-05-19T18:02:41.696Z,96030.00
2019-05-19T18:13:21.415Z,96060.00
2019-05-19T18:24:02.498Z,96080.00
2019-05-19T18:34:41.583Z,96181.00
2019-05-19T18:45:24.817Z,96250.00
2019-05-19T18:55:55.242Z,96274.00
2019-05-19T19:06:27.153Z,96413.00
2019-05-19T19:16:57.712Z,96461.00
2019-05-19T19:27:37.324Z,96506.00
2019-05-19T19:38:14.589Z,96604.00
2019-05-19T19:48:49.469Z,96675.00
2019-05-19T19:59:29.722Z,96783.00
2019-05-19T20:10:07.207Z,96791.00
2019-05-19T20:20:43.736Z,96819.00
2019-05-19T20:31:24.358Z,96847.00
2019-05-19T20:42:02.443Z,96908.00
2019-05-19T20:52:40.545Z,96923.00
2019-05-19T21:03:14.237Z,96907.00
2019-05-19T21:13:56.939Z,96852.00
2019-05-19T21:24:27.567Z,96902.00
2019-05-19T21:35:08.904Z,96928.00
2019-05-19T21:45:43.882Z,97034.00
2019-05-19T21:56:24.309Z,97112.00
2019-05-19T22:06:56.923Z,97178.00
2019-05-19T22:17:34.841Z,97139.00
2019-05-19T22:28:15.857Z,97013.00
2019-05-19T22:38:52.983Z,97070.00
2019-05-19T22:49:29.426Z,97129.00
2019-05-19T23:00:06.318Z,97201.00
2019-05-19T23:10:40.608Z,97174.00
2019-05-19T23:21:16.019Z,97217.00
2019-05-19T23:32:06.856Z,97232.00
2019-05-19T23:42:35.310Z,97257.00
2019-05-19T23:53:14.700Z,97300.00
